sensor_id;sensor_type;location;lat;lon;timestamp;P1;durP1;ratioP1;P2;durP2;ratioP2
75165;SDS011;63747;48.042;10.088;2023-06-24T00:01:22;5.18;;;4.68;;
75165;SDS011;63747;48.042;10.088;2023-06-24T00:04:23;5.15;;;4.65;;
75165;SDS011;63747;48.042;10.088;2023-06-24T00:07:24;5.78;;;5.22;;
75165;SDS011;63747;48.042;10.088;2023-06-24T00:10:26;6.13;;;5.10;;
75165;SDS011;63747;48.042;10.088;2023-06-24T00:13:27;5.78;;;4.93;;
75165;SDS011;63747;48.042;10.088;2023-06-24T00:16:28;5.75;;;4.75;;
75165;SDS011;63747;48.042;10.088;2023-06-24T00:19:29;5.10;;;4.60;;
75165;SDS011;63747;48.042;10.088;2023-06-24T00:22:31;6.50;;;4.57;;
75165;SDS011;63747;48.042;10.088;2023-06-24T00:25:32;5.75;;;5.15;;
75165;SDS011;63747;48.042;10.088;2023-06-24T00:28:32;5.72;;;4.82;;
75165;SDS011;63747;48.042;10.088;2023-06-24T00:31:33;5.82;;;5.30;;
75165;SDS011;63747;48.042;10.088;2023-06-24T00:34:34;7.35;;;6.60;;
75165;SDS011;63747;48.042;10.088;2023-06-24T00:37:34;7.13;;;6.22;;
75165;SDS011;63747;48.042;10.088;2023-06-24T00:40:37;5.82;;;4.95;;
75165;SDS011;63747;48.042;10.088;2023-06-24T00:43:39;4.90;;;4.40;;
75165;SDS011;63747;48.042;10.088;2023-06-24T00:46:40;6.45;;;4.90;;
75165;SDS011;63747;48.042;10.088;2023-06-24T00:49:40;5.45;;;4.95;;
75165;SDS011;63747;48.042;10.088;2023-06-24T00:52:45;5.68;;;5.15;;
75165;SDS011;63747;48.042;10.088;2023-06-24T00:55:47;6.47;;;5.20;;
75165;SDS011;63747;48.042;10.088;2023-06-24T00:58:48;5.45;;;4.80;;
75165;SDS011;63747;48.042;10.088;2023-06-24T01:01:50;5.78;;;4.95;;
75165;SDS011;63747;48.042;10.088;2023-06-24T01:04:53;6.13;;;4.97;;
75165;SDS011;63747;48.042;10.088;2023-06-24T01:07:54;7.47;;;5.03;;
75165;SDS011;63747;48.042;10.088;2023-06-24T01:10:55;6.25;;;5.65;;
75165;SDS011;63747;48.042;10.088;2023-06-24T01:13:56;5.50;;;5.00;;
75165;SDS011;63747;48.042;10.088;2023-06-24T01:20:27;6.00;;;5.40;;
75165;SDS011;63747;48.042;10.088;2023-06-24T01:23:42;6.75;;;4.93;;
75165;SDS011;63747;48.042;10.088;2023-06-24T01:31:00;5.85;;;4.65;;
75165;SDS011;63747;48.042;10.088;2023-06-24T01:40:45;7.03;;;5.93;;
75165;SDS011;63747;48.042;10.088;2023-06-24T01:43:46;7.97;;;6.32;;
75165;SDS011;63747;48.042;10.088;2023-06-24T01:46:48;7.43;;;6.45;;
75165;SDS011;63747;48.042;10.088;2023-06-24T01:49:55;6.75;;;6.03;;
75165;SDS011;63747;48.042;10.088;2023-06-24T01:53:00;10.57;;;6.07;;
75165;SDS011;63747;48.042;10.088;2023-06-24T01:56:05;7.15;;;6.25;;
75165;SDS011;63747;48.042;10.088;2023-06-24T01:59:07;7.28;;;6.57;;
75165;SDS011;63747;48.042;10.088;2023-06-24T02:02:09;6.97;;;6.28;;
75165;SDS011;63747;48.042;10.088;2023-06-24T02:05:10;7.47;;;6.38;;
75165;SDS011;63747;48.042;10.088;2023-06-24T02:08:12;7.47;;;6.78;;
75165;SDS011;63747;48.042;10.088;2023-06-24T02:11:14;8.18;;;6.75;;
75165;SDS011;63747;48.042;10.088;2023-06-24T02:14:16;7.10;;;6.15;;
75165;SDS011;63747;48.042;10.088;2023-06-24T02:17:19;7.05;;;6.43;;
75165;SDS011;63747;48.042;10.088;2023-06-24T02:20:22;7.45;;;6.40;;
75165;SDS011;63747;48.042;10.088;2023-06-24T02:23:27;7.82;;;6.75;;
75165;SDS011;63747;48.042;10.088;2023-06-24T02:26:29;8.35;;;6.80;;
75165;SDS011;63747;48.042;10.088;2023-06-24T02:29:29;7.88;;;6.75;;
75165;SDS011;63747;48.042;10.088;2023-06-24T02:32:31;7.38;;;6.68;;
75165;SDS011;63747;48.042;10.088;2023-06-24T02:35:32;8.38;;;7.32;;
75165;SDS011;63747;48.042;10.088;2023-06-24T02:38:33;8.48;;;7.03;;
75165;SDS011;63747;48.042;10.088;2023-06-24T02:41:34;8.85;;;7.60;;
75165;SDS011;63747;48.042;10.088;2023-06-24T02:44:34;12.23;;;8.23;;
75165;SDS011;63747;48.042;10.088;2023-06-24T02:47:35;9.90;;;8.30;;
75165;SDS011;63747;48.042;10.088;2023-06-24T02:50:37;10.23;;;8.88;;
75165;SDS011;63747;48.042;10.088;2023-06-24T02:53:40;11.05;;;8.95;;
75165;SDS011;63747;48.042;10.088;2023-06-24T02:56:42;10.68;;;9.00;;
75165;SDS011;63747;48.042;10.088;2023-06-24T02:59:44;9.77;;;8.48;;
75165;SDS011;63747;48.042;10.088;2023-06-24T03:02:45;10.20;;;9.02;;
75165;SDS011;63747;48.042;10.088;2023-06-24T03:05:47;9.75;;;8.30;;
75165;SDS011;63747;48.042;10.088;2023-06-24T03:08:50;9.00;;;8.10;;
75165;SDS011;63747;48.042;10.088;2023-06-24T03:11:51;7.68;;;6.90;;
75165;SDS011;63747;48.042;10.088;2023-06-24T03:14:52;7.38;;;6.53;;
75165;SDS011;63747;48.042;10.088;2023-06-24T03:17:52;6.55;;;5.95;;
75165;SDS011;63747;48.042;10.088;2023-06-24T03:20:53;7.20;;;6.35;;
75165;SDS011;63747;48.042;10.088;2023-06-24T03:23:54;6.57;;;5.90;;
75165;SDS011;63747;48.042;10.088;2023-06-24T03:29:57;6.32;;;5.72;;
75165;SDS011;63747;48.042;10.088;2023-06-24T03:32:57;5.45;;;4.95;;
75165;SDS011;63747;48.042;10.088;2023-06-24T03:35:58;6.78;;;4.88;;
75165;SDS011;63747;48.042;10.088;2023-06-24T03:38:58;5.50;;;4.65;;
75165;SDS011;63747;48.042;10.088;2023-06-24T03:41:59;5.68;;;4.22;;
75165;SDS011;63747;48.042;10.088;2023-06-24T03:45:00;5.03;;;4.53;;
75165;SDS011;63747;48.042;10.088;2023-06-24T03:48:02;5.20;;;4.22;;
75165;SDS011;63747;48.042;10.088;2023-06-24T03:51:03;5.20;;;4.70;;
75165;SDS011;63747;48.042;10.088;2023-06-24T03:54:03;4.75;;;4.32;;
75165;SDS011;63747;48.042;10.088;2023-06-24T03:57:04;5.05;;;4.20;;
75165;SDS011;63747;48.042;10.088;2023-06-24T04:00:06;5.28;;;4.32;;
75165;SDS011;63747;48.042;10.088;2023-06-24T04:03:16;4.90;;;4.43;;
75165;SDS011;63747;48.042;10.088;2023-06-24T04:06:20;6.93;;;5.07;;
75165;SDS011;63747;48.042;10.088;2023-06-24T04:09:20;5.15;;;4.65;;
75165;SDS011;63747;48.042;10.088;2023-06-24T04:12:22;5.25;;;4.40;;
75165;SDS011;63747;48.042;10.088;2023-06-24T04:15:23;8.38;;;5.43;;
75165;SDS011;63747;48.042;10.088;2023-06-24T04:18:24;6.28;;;4.90;;
75165;SDS011;63747;48.042;10.088;2023-06-24T04:21:25;6.05;;;5.45;;
75165;SDS011;63747;48.042;10.088;2023-06-24T04:24:26;7.68;;;5.97;;
75165;SDS011;63747;48.042;10.088;2023-06-24T04:27:26;7.32;;;6.22;;
75165;SDS011;63747;48.042;10.088;2023-06-24T04:30:27;10.20;;;5.70;;
75165;SDS011;63747;48.042;10.088;2023-06-24T04:33:28;8.93;;;6.13;;
75165;SDS011;63747;48.042;10.088;2023-06-24T04:40:25;4.93;;;4.15;;
75165;SDS011;63747;48.042;10.088;2023-06-24T04:43:26;4.95;;;4.20;;
75165;SDS011;63747;48.042;10.088;2023-06-24T04:46:30;4.95;;;4.40;;
75165;SDS011;63747;48.042;10.088;2023-06-24T04:49:32;4.50;;;4.10;;
75165;SDS011;63747;48.042;10.088;2023-06-24T04:52:33;4.28;;;3.83;;
75165;SDS011;63747;48.042;10.088;2023-06-24T04:55:34;4.72;;;4.18;;
75165;SDS011;63747;48.042;10.088;2023-06-24T04:58:34;4.72;;;4.20;;
75165;SDS011;63747;48.042;10.088;2023-06-24T05:01:35;5.03;;;4.40;;
75165;SDS011;63747;48.042;10.088;2023-06-24T05:04:36;5.47;;;3.97;;
75165;SDS011;63747;48.042;10.088;2023-06-24T05:07:36;4.85;;;3.90;;
75165;SDS011;63747;48.042;10.088;2023-06-24T05:10:37;4.15;;;3.75;;
75165;SDS011;63747;48.042;10.088;2023-06-24T05:13:38;5.90;;;4.10;;
75165;SDS011;63747;48.042;10.088;2023-06-24T05:16:38;4.60;;;4.13;;
75165;SDS011;63747;48.042;10.088;2023-06-24T05:19:39;7.07;;;4.10;;
75165;SDS011;63747;48.042;10.088;2023-06-24T05:22:39;5.70;;;4.20;;
75165;SDS011;63747;48.042;10.088;2023-06-24T05:25:40;5.05;;;4.10;;
75165;SDS011;63747;48.042;10.088;2023-06-24T05:28:41;7.53;;;4.10;;
75165;SDS011;63747;48.042;10.088;2023-06-24T05:31:42;5.88;;;4.13;;
75165;SDS011;63747;48.042;10.088;2023-06-24T05:34:43;6.80;;;4.40;;
75165;SDS011;63747;48.042;10.088;2023-06-24T05:37:44;4.55;;;3.88;;
75165;SDS011;63747;48.042;10.088;2023-06-24T05:40:44;4.85;;;4.35;;
75165;SDS011;63747;48.042;10.088;2023-06-24T05:43:45;4.90;;;4.40;;
75165;SDS011;63747;48.042;10.088;2023-06-24T05:46:46;4.60;;;4.20;;
75165;SDS011;63747;48.042;10.088;2023-06-24T05:49:46;6.80;;;4.45;;
75165;SDS011;63747;48.042;10.088;2023-06-24T05:52:47;4.88;;;4.38;;
75165;SDS011;63747;48.042;10.088;2023-06-24T05:55:48;4.72;;;4.32;;
75165;SDS011;63747;48.042;10.088;2023-06-24T06:01:49;4.90;;;4.20;;
75165;SDS011;63747;48.042;10.088;2023-06-24T06:04:50;4.90;;;4.40;;
75165;SDS011;63747;48.042;10.088;2023-06-24T06:07:51;5.18;;;4.15;;
75165;SDS011;63747;48.042;10.088;2023-06-24T06:10:53;6.38;;;4.30;;
75165;SDS011;63747;48.042;10.088;2023-06-24T06:16:54;5.33;;;3.80;;
75165;SDS011;63747;48.042;10.088;2023-06-24T06:19:55;6.75;;;4.15;;
75165;SDS011;63747;48.042;10.088;2023-06-24T06:25:56;4.10;;;3.80;;
75165;SDS011;63747;48.042;10.088;2023-06-24T06:31:57;4.60;;;4.20;;
75165;SDS011;63747;48.042;10.088;2023-06-24T06:37:59;4.87;;;4.00;;
75165;SDS011;63747;48.042;10.088;2023-06-24T06:44:00;4.68;;;4.28;;
75165;SDS011;63747;48.042;10.088;2023-06-24T06:47:01;4.80;;;3.78;;
75165;SDS011;63747;48.042;10.088;2023-06-24T06:53:02;4.78;;;4.00;;
75165;SDS011;63747;48.042;10.088;2023-06-24T06:56:03;5.88;;;3.90;;
75165;SDS011;63747;48.042;10.088;2023-06-24T06:59:04;5.03;;;4.05;;
75165;SDS011;63747;48.042;10.088;2023-06-24T07:02:05;3.95;;;3.60;;
75165;SDS011;63747;48.042;10.088;2023-06-24T07:05:06;4.65;;;3.92;;
75165;SDS011;63747;48.042;10.088;2023-06-24T07:08:07;4.10;;;3.75;;
75165;SDS011;63747;48.042;10.088;2023-06-24T07:11:08;4.45;;;3.60;;
75165;SDS011;63747;48.042;10.088;2023-06-24T07:14:08;5.07;;;3.90;;
75165;SDS011;63747;48.042;10.088;2023-06-24T07:17:09;4.05;;;3.65;;
75165;SDS011;63747;48.042;10.088;2023-06-24T07:20:10;6.50;;;3.80;;
75165;SDS011;63747;48.042;10.088;2023-06-24T07:23:11;4.30;;;3.80;;
75165;SDS011;63747;48.042;10.088;2023-06-24T07:26:11;4.45;;;3.85;;
75165;SDS011;63747;48.042;10.088;2023-06-24T07:29:12;4.45;;;3.50;;
75165;SDS011;63747;48.042;10.088;2023-06-24T07:32:13;4.50;;;4.03;;
75165;SDS011;63747;48.042;10.088;2023-06-24T07:35:14;3.55;;;3.25;;
75165;SDS011;63747;48.042;10.088;2023-06-24T07:38:15;4.25;;;3.67;;
75165;SDS011;63747;48.042;10.088;2023-06-24T07:41:16;4.88;;;3.67;;
75165;SDS011;63747;48.042;10.088;2023-06-24T07:44:17;4.40;;;3.97;;
75165;SDS011;63747;48.042;10.088;2023-06-24T07:47:19;4.25;;;3.85;;
75165;SDS011;63747;48.042;10.088;2023-06-24T07:50:19;4.40;;;4.00;;
75165;SDS011;63747;48.042;10.088;2023-06-24T07:53:20;4.20;;;3.80;;
75165;SDS011;63747;48.042;10.088;2023-06-24T07:56:21;4.90;;;4.05;;
75165;SDS011;63747;48.042;10.088;2023-06-24T07:59:22;4.53;;;4.13;;
75165;SDS011;63747;48.042;10.088;2023-06-24T08:02:22;5.30;;;3.88;;
75165;SDS011;63747;48.042;10.088;2023-06-24T08:05:24;4.28;;;3.88;;
75165;SDS011;63747;48.042;10.088;2023-06-24T08:08:24;5.47;;;4.65;;
75165;SDS011;63747;48.042;10.088;2023-06-24T08:11:25;4.63;;;3.65;;
75165;SDS011;63747;48.042;10.088;2023-06-24T08:14:26;5.25;;;4.75;;
75165;SDS011;63747;48.042;10.088;2023-06-24T08:17:26;5.20;;;4.10;;
75165;SDS011;63747;48.042;10.088;2023-06-24T08:20:27;6.50;;;4.43;;
75165;SDS011;63747;48.042;10.088;2023-06-24T08:23:28;5.25;;;4.18;;
75165;SDS011;63747;48.042;10.088;2023-06-24T08:26:28;4.70;;;4.20;;
75165;SDS011;63747;48.042;10.088;2023-06-24T08:29:29;4.22;;;3.83;;
75165;SDS011;63747;48.042;10.088;2023-06-24T08:32:30;4.53;;;4.13;;
75165;SDS011;63747;48.042;10.088;2023-06-24T08:35:30;4.38;;;3.97;;
75165;SDS011;63747;48.042;10.088;2023-06-24T08:38:31;6.85;;;4.15;;
75165;SDS011;63747;48.042;10.088;2023-06-24T08:41:31;4.90;;;4.38;;
75165;SDS011;63747;48.042;10.088;2023-06-24T08:44:32;4.45;;;4.05;;
75165;SDS011;63747;48.042;10.088;2023-06-24T08:47:33;4.47;;;4.07;;
75165;SDS011;63747;48.042;10.088;2023-06-24T08:50:36;5.07;;;4.57;;
75165;SDS011;63747;48.042;10.088;2023-06-24T08:53:43;4.70;;;4.22;;
75165;SDS011;63747;48.042;10.088;2023-06-24T08:56:45;4.10;;;3.70;;
75165;SDS011;63747;48.042;10.088;2023-06-24T08:59:46;4.32;;;3.92;;
75165;SDS011;63747;48.042;10.088;2023-06-24T09:02:47;4.35;;;3.95;;
75165;SDS011;63747;48.042;10.088;2023-06-24T09:05:47;4.80;;;4.30;;
75165;SDS011;63747;48.042;10.088;2023-06-24T09:08:52;4.38;;;3.75;;
75165;SDS011;63747;48.042;10.088;2023-06-24T09:11:57;4.35;;;3.92;;
75165;SDS011;63747;48.042;10.088;2023-06-24T09:15:01;4.72;;;3.90;;
75165;SDS011;63747;48.042;10.088;2023-06-24T09:18:03;4.22;;;3.83;;
75165;SDS011;63747;48.042;10.088;2023-06-24T09:21:05;4.70;;;4.20;;
75165;SDS011;63747;48.042;10.088;2023-06-24T09:24:06;4.00;;;3.53;;
75165;SDS011;63747;48.042;10.088;2023-06-24T09:27:07;3.97;;;3.28;;
75165;SDS011;63747;48.042;10.088;2023-06-24T09:30:20;5.63;;;4.22;;
75165;SDS011;63747;48.042;10.088;2023-06-24T09:33:25;4.13;;;3.72;;
75165;SDS011;63747;48.042;10.088;2023-06-24T09:36:26;3.97;;;3.67;;
75165;SDS011;63747;48.042;10.088;2023-06-24T09:39:27;3.80;;;3.50;;
75165;SDS011;63747;48.042;10.088;2023-06-24T09:42:29;3.97;;;3.58;;
75165;SDS011;63747;48.042;10.088;2023-06-24T09:45:30;4.47;;;4.07;;
75165;SDS011;63747;48.042;10.088;2023-06-24T09:48:31;4.10;;;3.70;;
75165;SDS011;63747;48.042;10.088;2023-06-24T09:51:36;3.85;;;3.50;;
75165;SDS011;63747;48.042;10.088;2023-06-24T09:54:39;4.45;;;3.55;;
75165;SDS011;63747;48.042;10.088;2023-06-24T09:57:40;3.13;;;2.92;;
75165;SDS011;63747;48.042;10.088;2023-06-24T10:00:51;3.72;;;3.38;;
75165;SDS011;63747;48.042;10.088;2023-06-24T10:03:52;4.15;;;3.75;;
75165;SDS011;63747;48.042;10.088;2023-06-24T10:06:54;10.07;;;9.02;;
75165;SDS011;63747;48.042;10.088;2023-06-24T10:09:55;26.00;;;20.05;;
75165;SDS011;63747;48.042;10.088;2023-06-24T10:12:56;5.85;;;4.70;;
75165;SDS011;63747;48.042;10.088;2023-06-24T10:15:57;6.63;;;6.03;;
75165;SDS011;63747;48.042;10.088;2023-06-24T10:19:02;3.75;;;3.45;;
75165;SDS011;63747;48.042;10.088;2023-06-24T10:22:04;4.60;;;3.20;;
75165;SDS011;63747;48.042;10.088;2023-06-24T10:25:09;4.10;;;3.80;;
75165;SDS011;63747;48.042;10.088;2023-06-24T10:28:11;6.88;;;5.60;;
75165;SDS011;63747;48.042;10.088;2023-06-24T10:31:12;4.00;;;3.67;;
75165;SDS011;63747;48.042;10.088;2023-06-24T10:37:20;4.07;;;3.65;;
75165;SDS011;63747;48.042;10.088;2023-06-24T10:40:39;3.45;;;3.10;;
75165;SDS011;63747;48.042;10.088;2023-06-24T10:43:42;4.07;;;3.78;;
75165;SDS011;63747;48.042;10.088;2023-06-24T10:46:42;3.30;;;3.00;;
75165;SDS011;63747;48.042;10.088;2023-06-24T10:49:54;3.42;;;3.13;;
75165;SDS011;63747;48.042;10.088;2023-06-24T10:52:54;3.60;;;3.30;;
75165;SDS011;63747;48.042;10.088;2023-06-24T10:55:57;4.65;;;2.92;;
75165;SDS011;63747;48.042;10.088;2023-06-24T10:58:58;4.63;;;4.05;;
75165;SDS011;63747;48.042;10.088;2023-06-24T11:01:59;5.20;;;3.65;;
75165;SDS011;63747;48.042;10.088;2023-06-24T11:05:00;4.25;;;3.63;;
75165;SDS011;63747;48.042;10.088;2023-06-24T11:08:02;3.72;;;3.42;;
75165;SDS011;63747;48.042;10.088;2023-06-24T11:11:03;3.65;;;3.35;;
75165;SDS011;63747;48.042;10.088;2023-06-24T11:14:06;3.40;;;3.10;;
75165;SDS011;63747;48.042;10.088;2023-06-24T11:17:07;3.15;;;2.95;;
75165;SDS011;63747;48.042;10.088;2023-06-24T11:20:08;4.45;;;3.60;;
75165;SDS011;63747;48.042;10.088;2023-06-24T11:23:09;4.13;;;3.70;;
75165;SDS011;63747;48.042;10.088;2023-06-24T11:26:11;4.60;;;2.90;;
75165;SDS011;63747;48.042;10.088;2023-06-24T11:29:11;3.42;;;3.13;;
75165;SDS011;63747;48.042;10.088;2023-06-24T11:32:12;3.13;;;2.90;;
75165;SDS011;63747;48.042;10.088;2023-06-24T11:35:13;4.53;;;3.10;;
75165;SDS011;63747;48.042;10.088;2023-06-24T11:38:17;3.67;;;3.38;;
75165;SDS011;63747;48.042;10.088;2023-06-24T11:41:20;3.33;;;2.90;;
75165;SDS011;63747;48.042;10.088;2023-06-24T11:44:21;3.78;;;2.90;;
75165;SDS011;63747;48.042;10.088;2023-06-24T11:47:24;3.30;;;3.00;;
75165;SDS011;63747;48.042;10.088;2023-06-24T11:50:25;4.47;;;3.05;;
75165;SDS011;63747;48.042;10.088;2023-06-24T11:53:31;3.28;;;2.97;;
75165;SDS011;63747;48.042;10.088;2023-06-24T11:56:49;3.42;;;3.10;;
75165;SDS011;63747;48.042;10.088;2023-06-24T11:59:54;4.10;;;3.20;;
75165;SDS011;63747;48.042;10.088;2023-06-24T12:02:56;4.10;;;3.70;;
75165;SDS011;63747;48.042;10.088;2023-06-24T12:05:58;3.50;;;3.20;;
75165;SDS011;63747;48.042;10.088;2023-06-24T12:08:59;5.18;;;2.97;;
75165;SDS011;63747;48.042;10.088;2023-06-24T12:12:00;3.50;;;3.20;;
75165;SDS011;63747;48.042;10.088;2023-06-24T12:15:00;3.58;;;3.28;;
75165;SDS011;63747;48.042;10.088;2023-06-24T12:18:01;3.65;;;3.35;;
75165;SDS011;63747;48.042;10.088;2023-06-24T12:21:03;5.45;;;3.58;;
75165;SDS011;63747;48.042;10.088;2023-06-24T12:24:04;4.43;;;3.30;;
75165;SDS011;63747;48.042;10.088;2023-06-24T12:27:05;3.60;;;3.30;;
75165;SDS011;63747;48.042;10.088;2023-06-24T12:30:06;5.88;;;3.10;;
75165;SDS011;63747;48.042;10.088;2023-06-24T12:33:08;3.60;;;3.30;;
75165;SDS011;63747;48.042;10.088;2023-06-24T12:36:09;3.63;;;2.92;;
75165;SDS011;63747;48.042;10.088;2023-06-24T12:39:09;3.78;;;3.47;;
75165;SDS011;63747;48.042;10.088;2023-06-24T12:42:10;3.63;;;3.33;;
75165;SDS011;63747;48.042;10.088;2023-06-24T12:45:11;4.70;;;3.50;;
75165;SDS011;63747;48.042;10.088;2023-06-24T12:48:12;3.55;;;3.05;;
75165;SDS011;63747;48.042;10.088;2023-06-24T12:51:13;3.38;;;3.13;;
75165;SDS011;63747;48.042;10.088;2023-06-24T12:54:14;4.47;;;2.90;;
75165;SDS011;63747;48.042;10.088;2023-06-24T12:57:15;3.92;;;3.10;;
75165;SDS011;63747;48.042;10.088;2023-06-24T13:00:16;3.45;;;3.13;;
75165;SDS011;63747;48.042;10.088;2023-06-24T13:03:20;3.38;;;3.08;;
75165;SDS011;63747;48.042;10.088;2023-06-24T13:06:21;3.92;;;3.55;;
75165;SDS011;63747;48.042;10.088;2023-06-24T13:09:22;3.95;;;3.28;;
75165;SDS011;63747;48.042;10.088;2023-06-24T13:12:22;5.32;;;3.00;;
75165;SDS011;63747;48.042;10.088;2023-06-24T13:15:23;3.97;;;3.40;;
75165;SDS011;63747;48.042;10.088;2023-06-24T13:18:24;3.47;;;3.17;;
75165;SDS011;63747;48.042;10.088;2023-06-24T13:21:24;3.63;;;3.33;;
75165;SDS011;63747;48.042;10.088;2023-06-24T13:24:25;3.97;;;3.65;;
75165;SDS011;63747;48.042;10.088;2023-06-24T13:27:26;4.75;;;3.55;;
75165;SDS011;63747;48.042;10.088;2023-06-24T13:30:26;4.82;;;3.05;;
75165;SDS011;63747;48.042;10.088;2023-06-24T13:33:27;3.97;;;3.40;;
75165;SDS011;63747;48.042;10.088;2023-06-24T13:36:30;3.58;;;3.20;;
75165;SDS011;63747;48.042;10.088;2023-06-24T13:39:35;3.58;;;3.28;;
75165;SDS011;63747;48.042;10.088;2023-06-24T13:42:36;3.88;;;3.58;;
75165;SDS011;63747;48.042;10.088;2023-06-24T13:45:36;3.67;;;3.33;;
75165;SDS011;63747;48.042;10.088;2023-06-24T13:48:37;3.40;;;3.05;;
75165;SDS011;63747;48.042;10.088;2023-06-24T13:51:38;4.25;;;2.90;;
75165;SDS011;63747;48.042;10.088;2023-06-24T13:54:39;4.13;;;3.00;;
75165;SDS011;63747;48.042;10.088;2023-06-24T13:57:40;3.30;;;3.00;;
75165;SDS011;63747;48.042;10.088;2023-06-24T14:00:41;3.50;;;3.20;;
75165;SDS011;63747;48.042;10.088;2023-06-24T14:03:42;4.00;;;3.30;;
75165;SDS011;63747;48.042;10.088;2023-06-24T14:06:43;7.22;;;3.75;;
75165;SDS011;63747;48.042;10.088;2023-06-24T14:09:45;3.78;;;3.17;;
75165;SDS011;63747;48.042;10.088;2023-06-24T14:12:46;5.90;;;3.28;;
75165;SDS011;63747;48.042;10.088;2023-06-24T14:15:47;3.85;;;3.40;;
75165;SDS011;63747;48.042;10.088;2023-06-24T14:18:47;3.90;;;3.17;;
75165;SDS011;63747;48.042;10.088;2023-06-24T14:21:48;3.88;;;3.47;;
75165;SDS011;63747;48.042;10.088;2023-06-24T14:24:49;3.83;;;3.40;;
75165;SDS011;63747;48.042;10.088;2023-06-24T14:27:49;3.38;;;3.08;;
75165;SDS011;63747;48.042;10.088;2023-06-24T14:30:51;7.82;;;3.10;;
75165;SDS011;63747;48.042;10.088;2023-06-24T14:33:52;3.22;;;3.03;;
75165;SDS011;63747;48.042;10.088;2023-06-24T14:36:53;3.22;;;2.92;;
75165;SDS011;63747;48.042;10.088;2023-06-24T14:39:53;3.95;;;3.40;;
75165;SDS011;63747;48.042;10.088;2023-06-24T14:42:54;3.40;;;3.10;;
75165;SDS011;63747;48.042;10.088;2023-06-24T14:45:55;3.22;;;2.92;;
75165;SDS011;63747;48.042;10.088;2023-06-24T14:48:57;3.40;;;3.10;;
75165;SDS011;63747;48.042;10.088;2023-06-24T14:51:58;4.13;;;3.17;;
75165;SDS011;63747;48.042;10.088;2023-06-24T14:54:59;3.17;;;2.97;;
75165;SDS011;63747;48.042;10.088;2023-06-24T14:57:59;4.20;;;3.60;;
75165;SDS011;63747;48.042;10.088;2023-06-24T15:01:00;3.47;;;3.17;;
75165;SDS011;63747;48.042;10.088;2023-06-24T15:04:01;3.58;;;3.28;;
75165;SDS011;63747;48.042;10.088;2023-06-24T15:07:01;3.33;;;3.05;;
75165;SDS011;63747;48.042;10.088;2023-06-24T15:10:02;3.60;;;3.30;;
75165;SDS011;63747;48.042;10.088;2023-06-24T15:13:03;3.92;;;3.50;;
75165;SDS011;63747;48.042;10.088;2023-06-24T15:16:05;5.28;;;3.95;;
75165;SDS011;63747;48.042;10.088;2023-06-24T15:19:06;3.40;;;3.10;;
75165;SDS011;63747;48.042;10.088;2023-06-24T15:22:07;6.82;;;2.90;;
75165;SDS011;63747;48.042;10.088;2023-06-24T15:25:08;6.45;;;5.85;;
75165;SDS011;63747;48.042;10.088;2023-06-24T15:28:09;5.85;;;4.68;;
75165;SDS011;63747;48.042;10.088;2023-06-24T15:31:09;8.05;;;4.15;;
75165;SDS011;63747;48.042;10.088;2023-06-24T15:34:10;4.20;;;2.90;;
75165;SDS011;63747;48.042;10.088;2023-06-24T15:37:12;4.22;;;3.67;;
75165;SDS011;63747;48.042;10.088;2023-06-24T15:40:18;3.92;;;3.33;;
75165;SDS011;63747;48.042;10.088;2023-06-24T15:43:19;4.13;;;3.80;;
75165;SDS011;63747;48.042;10.088;2023-06-24T15:46:20;3.60;;;3.30;;
75165;SDS011;63747;48.042;10.088;2023-06-24T15:49:22;3.03;;;2.80;;
75165;SDS011;63747;48.042;10.088;2023-06-24T15:52:26;3.78;;;3.47;;
75165;SDS011;63747;48.042;10.088;2023-06-24T15:55:27;2.92;;;2.70;;
75165;SDS011;63747;48.042;10.088;2023-06-24T15:58:27;3.55;;;3.08;;
75165;SDS011;63747;48.042;10.088;2023-06-24T16:01:28;3.83;;;3.17;;
75165;SDS011;63747;48.042;10.088;2023-06-24T16:04:29;5.93;;;3.00;;
75165;SDS011;63747;48.042;10.088;2023-06-24T16:07:31;3.65;;;3.10;;
75165;SDS011;63747;48.042;10.088;2023-06-24T16:10:32;3.65;;;3.35;;
75165;SDS011;63747;48.042;10.088;2023-06-24T16:13:33;3.50;;;3.20;;
75165;SDS011;63747;48.042;10.088;2023-06-24T16:16:33;3.60;;;3.30;;
75165;SDS011;63747;48.042;10.088;2023-06-24T16:19:35;3.83;;;3.08;;
75165;SDS011;63747;48.042;10.088;2023-06-24T16:22:35;3.90;;;3.30;;
75165;SDS011;63747;48.042;10.088;2023-06-24T16:25:36;3.42;;;3.13;;
75165;SDS011;63747;48.042;10.088;2023-06-24T16:28:37;4.05;;;2.85;;
75165;SDS011;63747;48.042;10.088;2023-06-24T16:31:37;3.72;;;3.20;;
75165;SDS011;63747;48.042;10.088;2023-06-24T16:34:38;4.55;;;3.38;;
75165;SDS011;63747;48.042;10.088;2023-06-24T16:37:39;4.57;;;3.15;;
75165;SDS011;63747;48.042;10.088;2023-06-24T16:40:41;6.80;;;3.28;;
75165;SDS011;63747;48.042;10.088;2023-06-24T16:43:45;3.55;;;3.22;;
75165;SDS011;63747;48.042;10.088;2023-06-24T16:46:47;5.78;;;3.10;;
75165;SDS011;63747;48.042;10.088;2023-06-24T16:49:47;3.20;;;2.90;;
75165;SDS011;63747;48.042;10.088;2023-06-24T16:52:49;4.65;;;3.00;;
75165;SDS011;63747;48.042;10.088;2023-06-24T16:55:49;19.95;;;3.15;;
75165;SDS011;63747;48.042;10.088;2023-06-24T16:58:50;3.03;;;2.83;;
75165;SDS011;63747;48.042;10.088;2023-06-24T17:01:51;3.38;;;3.08;;
75165;SDS011;63747;48.042;10.088;2023-06-24T17:04:51;5.72;;;3.38;;
75165;SDS011;63747;48.042;10.088;2023-06-24T17:07:52;3.40;;;3.10;;
75165;SDS011;63747;48.042;10.088;2023-06-24T17:10:52;3.38;;;3.00;;
75165;SDS011;63747;48.042;10.088;2023-06-24T17:13:53;3.38;;;3.08;;
75165;SDS011;63747;48.042;10.088;2023-06-24T17:16:54;3.45;;;3.15;;
75165;SDS011;63747;48.042;10.088;2023-06-24T17:19:55;3.15;;;2.90;;
75165;SDS011;63747;48.042;10.088;2023-06-24T17:22:55;4.30;;;3.72;;
75165;SDS011;63747;48.042;10.088;2023-06-24T17:25:57;4.15;;;3.70;;
75165;SDS011;63747;48.042;10.088;2023-06-24T17:28:57;4.05;;;3.30;;
75165;SDS011;63747;48.042;10.088;2023-06-24T17:31:58;5.35;;;3.40;;
75165;SDS011;63747;48.042;10.088;2023-06-24T17:34:59;5.10;;;3.58;;
75165;SDS011;63747;48.042;10.088;2023-06-24T17:37:59;7.90;;;4.80;;
75165;SDS011;63747;48.042;10.088;2023-06-24T17:41:00;3.38;;;3.10;;
75165;SDS011;63747;48.042;10.088;2023-06-24T17:44:01;5.30;;;3.38;;
75165;SDS011;63747;48.042;10.088;2023-06-24T17:47:01;3.83;;;3.53;;
75165;SDS011;63747;48.042;10.088;2023-06-24T17:50:02;5.28;;;4.00;;
75165;SDS011;63747;48.042;10.088;2023-06-24T17:53:04;4.07;;;3.00;;
75165;SDS011;63747;48.042;10.088;2023-06-24T17:56:05;3.55;;;3.22;;
75165;SDS011;63747;48.042;10.088;2023-06-24T17:59:06;5.22;;;4.03;;
75165;SDS011;63747;48.042;10.088;2023-06-24T18:02:07;3.30;;;3.00;;
75165;SDS011;63747;48.042;10.088;2023-06-24T18:05:08;3.60;;;2.95;;
75165;SDS011;63747;48.042;10.088;2023-06-24T18:08:10;3.83;;;2.88;;
75165;SDS011;63747;48.042;10.088;2023-06-24T18:11:11;3.25;;;2.95;;
75165;SDS011;63747;48.042;10.088;2023-06-24T18:14:11;3.75;;;3.00;;
75165;SDS011;63747;48.042;10.088;2023-06-24T18:17:12;3.25;;;2.95;;
75165;SDS011;63747;48.042;10.088;2023-06-24T18:20:13;3.72;;;3.10;;
75165;SDS011;63747;48.042;10.088;2023-06-24T18:23:14;3.38;;;3.08;;
75165;SDS011;63747;48.042;10.088;2023-06-24T18:26:14;4.72;;;3.00;;
75165;SDS011;63747;48.042;10.088;2023-06-24T18:29:15;3.47;;;2.85;;
75165;SDS011;63747;48.042;10.088;2023-06-24T18:32:16;4.03;;;3.15;;
75165;SDS011;63747;48.042;10.088;2023-06-24T18:35:17;4.90;;;3.10;;
75165;SDS011;63747;48.042;10.088;2023-06-24T18:38:18;4.55;;;3.25;;
75165;SDS011;63747;48.042;10.088;2023-06-24T18:41:18;3.90;;;2.70;;